sensor_id;sensor_type;location;lat;lon;timestamp;pressure;altitude;pressure_sealevel;temperature;humidity
30714;BME280;17465;47.934;33.430;2024-03-29T00:01:30;57267.95;;;-140.43;95.40
30714;BME280;17465;47.934;33.430;2024-03-29T00:04:00;57296.54;;;-140.43;95.33
30714;BME280;17465;47.934;33.430;2024-03-29T00:06:31;57273.24;;;-140.43;96.02
30714;BME280;17465;47.934;33.430;2024-03-29T00:09:01;57299.72;;;-140.43;96.27
30714;BME280;17465;47.934;33.430;2024-03-29T00:11:32;57289.13;;;-140.43;95.29
30714;BME280;17465;47.934;33.430;2024-03-29T00:14:02;57281.71;;;-140.43;96.57
30714;BME280;17465;47.934;33.430;2024-03-29T00:16:32;57311.37;;;-140.43;95.41
30714;BME280;17465;47.934;33.430;2024-03-29T00:19:03;57298.66;;;-140.43;95.52
30714;BME280;17465;47.934;33.430;2024-03-29T00:21:33;57298.66;;;-140.43;95.52
30714;BME280;17465;47.934;33.430;2024-03-29T00:24:03;57316.66;;;-140.43;95.37
30714;BME280;17465;47.934;33.430;2024-03-29T00:26:33;57267.95;;;-140.43;94.61
30714;BME280;17465;47.934;33.430;2024-03-29T00:29:03;57293.36;;;-140.43;95.35
30714;BME280;17465;47.934;33.430;2024-03-29T00:31:34;57285.95;;;-140.43;95.82
30714;BME280;17465;47.934;33.430;2024-03-29T00:34:04;57285.95;;;-140.43;95.82
30714;BME280;17465;47.934;33.430;2024-03-29T00:36:34;57310.31;;;-140.43;94.82
30714;BME280;17465;47.934;33.430;2024-03-29T00:39:04;57302.89;;;-140.43;95.37
30714;BME280;17465;47.934;33.430;2024-03-29T00:41:34;57302.89;;;-140.43;95.37
30714;BME280;17465;47.934;33.430;2024-03-29T00:44:04;57305.01;;;-140.43;94.60
30714;BME280;17465;47.934;33.430;2024-03-29T00:46:34;57278.54;;;-140.43;95.15
30714;BME280;17465;47.934;33.430;2024-03-29T00:49:05;57270.06;;;-140.43;95.89
30714;BME280;17465;47.934;33.430;2024-03-29T00:51:35;57274.30;;;-140.43;95.57
30714;BME280;17465;47.934;33.430;2024-03-29T00:54:05;57274.30;;;-140.43;95.57
30714;BME280;17465;47.934;33.430;2024-03-29T00:56:36;57294.42;;;-140.43;94.27
30714;BME280;17465;47.934;33.430;2024-03-29T00:59:06;57295.48;;;-140.43;93.65
30714;BME280;17465;47.934;33.430;2024-03-29T01:01:36;57308.19;;;-140.43;92.43
30714;BME280;17465;47.934;33.430;2024-03-29T01:04:06;57320.90;;;-140.43;92.67
30714;BME280;17465;47.934;33.430;2024-03-29T01:06:38;57320.90;;;-140.43;92.67
30714;BME280;17465;47.934;33.430;2024-03-29T01:09:08;57309.25;;;-140.43;93.42
30714;BME280;17465;47.934;33.430;2024-03-29T01:11:39;57292.30;;;-140.43;95.17
30714;BME280;17465;47.934;33.430;2024-03-29T01:14:09;57330.43;;;-140.43;95.51
30714;BME280;17465;47.934;33.430;2024-03-29T01:16:40;57310.31;;;-140.43;95.02
30714;BME280;17465;47.934;33.430;2024-03-29T01:19:10;57288.07;;;-140.43;95.45
30714;BME280;17465;47.934;33.430;2024-03-29T01:21:40;57272.18;;;-140.43;96.45
30714;BME280;17465;47.934;33.430;2024-03-29T01:24:10;57283.83;;;-140.43;96.75
30714;BME280;17465;47.934;33.430;2024-03-29T01:26:40;57299.72;;;-140.43;96.10
30714;BME280;17465;47.934;33.430;2024-03-29T01:29:11;57290.18;;;-140.43;96.70
30714;BME280;17465;47.934;33.430;2024-03-29T01:31:41;57294.42;;;-140.43;96.37
30714;BME280;17465;47.934;33.430;2024-03-29T01:34:11;57305.01;;;-140.43;96.33
30714;BME280;17465;47.934;33.430;2024-03-29T01:36:41;57300.78;;;-140.43;96.36
30714;BME280;17465;47.934;33.430;2024-03-29T01:39:11;57289.13;;;-140.43;96.97
30714;BME280;17465;47.934;33.430;2024-03-29T01:41:43;57289.13;;;-140.43;96.97
30714;BME280;17465;47.934;33.430;2024-03-29T01:44:14;57291.25;;;-140.43;96.57
30714;BME280;17465;47.934;33.430;2024-03-29T01:46:44;57315.61;;;-140.43;97.23
30714;BME280;17465;47.934;33.430;2024-03-29T01:49:15;57297.60;;;-140.43;97.97
30714;BME280;17465;47.934;33.430;2024-03-29T01:51:45;57279.59;;;-140.43;97.45
30714;BME280;17465;47.934;33.430;2024-03-29T01:54:15;57283.83;;;-140.43;97.10
30714;BME280;17465;47.934;33.430;2024-03-29T01:56:48;57308.19;;;-140.43;96.85
30714;BME280;17465;47.934;33.430;2024-03-29T01:59:19;57301.84;;;-140.43;96.05
30714;BME280;17465;47.934;33.430;2024-03-29T02:01:49;57280.66;;;-140.43;96.98
30714;BME280;17465;47.934;33.430;2024-03-29T02:04:20;57318.78;;;-140.43;97.00
30714;BME280;17465;47.934;33.430;2024-03-29T02:06:51;57294.42;;;-140.43;96.82
30714;BME280;17465;47.934;33.430;2024-03-29T02:09:21;57290.18;;;-140.43;96.07
30714;BME280;17465;47.934;33.430;2024-03-29T02:11:51;57292.30;;;-140.43;97.27
30714;BME280;17465;47.934;33.430;2024-03-29T02:14:22;57303.95;;;-140.43;97.03
30714;BME280;17465;47.934;33.430;2024-03-29T02:16:52;57274.30;;;-140.43;97.47
30714;BME280;17465;47.934;33.430;2024-03-29T02:19:22;57277.48;;;-140.43;97.35
30714;BME280;17465;47.934;33.430;2024-03-29T02:21:54;57270.06;;;-140.43;96.33
30714;BME280;17465;47.934;33.430;2024-03-29T02:24:25;57283.83;;;-140.43;96.71
30714;BME280;17465;47.934;33.430;2024-03-29T02:26:57;57260.54;;;-140.43;96.60
30714;BME280;17465;47.934;33.430;2024-03-29T02:29:27;57303.95;;;-140.43;96.27
30714;BME280;17465;47.934;33.430;2024-03-29T02:31:57;57267.95;;;-140.43;97.09
30714;BME280;17465;47.934;33.430;2024-03-29T02:34:27;57313.48;;;-140.43;96.98
30714;BME280;17465;47.934;33.430;2024-03-29T02:36:58;57249.95;;;-140.43;97.84
30714;BME280;17465;47.934;33.430;2024-03-29T02:39:28;57283.83;;;-140.43;97.45
30714;BME280;17465;47.934;33.430;2024-03-29T02:41:58;57290.18;;;-140.43;97.32
30714;BME280;17465;47.934;33.430;2024-03-29T02:44:28;57288.07;;;-140.43;98.25
30714;BME280;17465;47.934;33.430;2024-03-29T02:46:59;57306.07;;;-140.43;98.22
30714;BME280;17465;47.934;33.430;2024-03-29T02:49:29;57298.66;;;-140.43;97.79
30714;BME280;17465;47.934;33.430;2024-03-29T02:51:59;57298.66;;;-140.43;97.79
30714;BME280;17465;47.934;33.430;2024-03-29T02:54:29;57284.89;;;-140.43;96.37
30714;BME280;17465;47.934;33.430;2024-03-29T02:57:00;57298.66;;;-140.43;97.53
30714;BME280;17465;47.934;33.430;2024-03-29T02:59:30;57298.66;;;-140.43;97.53
30714;BME280;17465;47.934;33.430;2024-03-29T03:02:00;57287.01;;;-140.43;98.01
30714;BME280;17465;47.934;33.430;2024-03-29T03:04:31;57275.36;;;-140.43;97.81
30714;BME280;17465;47.934;33.430;2024-03-29T03:07:01;57263.71;;;-140.43;98.03
30714;BME280;17465;47.934;33.430;2024-03-29T03:09:32;57260.54;;;-140.43;98.50
30714;BME280;17465;47.934;33.430;2024-03-29T03:12:02;57260.54;;;-140.43;98.50
30714;BME280;17465;47.934;33.430;2024-03-29T03:14:32;57287.01;;;-140.43;98.08
30714;BME280;17465;47.934;33.430;2024-03-29T03:17:02;57265.83;;;-140.43;99.30
30714;BME280;17465;47.934;33.430;2024-03-29T03:19:33;57289.13;;;-140.43;98.75
30714;BME280;17465;47.934;33.430;2024-03-29T03:22:03;57269.00;;;-140.43;97.73
30714;BME280;17465;47.934;33.430;2024-03-29T03:24:33;57269.00;;;-140.43;98.03
30714;BME280;17465;47.934;33.430;2024-03-29T03:27:03;57265.83;;;-140.43;98.40
30714;BME280;17465;47.934;33.430;2024-03-29T03:29:33;57265.83;;;-140.43;97.66
30714;BME280;17465;47.934;33.430;2024-03-29T03:32:06;57299.72;;;-140.43;96.58
30714;BME280;17465;47.934;33.430;2024-03-29T03:34:36;57276.42;;;-140.43;97.18
30714;BME280;17465;47.934;33.430;2024-03-29T03:37:08;57237.23;;;-140.43;99.03
30714;BME280;17465;47.934;33.430;2024-03-29T03:39:39;57263.71;;;-140.43;99.36
30714;BME280;17465;47.934;33.430;2024-03-29T03:42:09;57273.24;;;-140.43;98.23
30714;BME280;17465;47.934;33.430;2024-03-29T03:44:39;57263.71;;;-140.43;97.31
30714;BME280;17465;47.934;33.430;2024-03-29T03:47:09;57255.24;;;-140.43;97.05
30714;BME280;17465;47.934;33.430;2024-03-29T03:49:39;57283.83;;;-140.43;98.22
30714;BME280;17465;47.934;33.430;2024-03-29T03:52:10;57275.36;;;-140.43;99.76
30714;BME280;17465;47.934;33.430;2024-03-29T03:54:40;57278.54;;;-140.43;99.34
30714;BME280;17465;47.934;33.430;2024-03-29T03:57:10;57266.89;;;-140.43;100.00
30714;BME280;17465;47.934;33.430;2024-03-29T03:59:41;57280.66;;;-140.43;99.25
30714;BME280;17465;47.934;33.430;2024-03-29T04:02:11;57280.66;;;-140.43;99.25
30714;BME280;17465;47.934;33.430;2024-03-29T04:04:41;57279.59;;;-140.43;99.23
30714;BME280;17465;47.934;33.430;2024-03-29T04:07:11;57272.18;;;-140.43;99.84
30714;BME280;17465;47.934;33.430;2024-03-29T04:09:42;57276.42;;;-140.43;98.96
30714;BME280;17465;47.934;33.430;2024-03-29T04:12:12;57289.13;;;-140.43;98.38
30714;BME280;17465;47.934;33.430;2024-03-29T04:14:42;57259.47;;;-140.43;99.40
30714;BME280;17465;47.934;33.430;2024-03-29T04:17:12;57292.30;;;-140.43;98.02
30714;BME280;17465;47.934;33.430;2024-03-29T04:19:42;57274.30;;;-140.43;97.83
30714;BME280;17465;47.934;33.430;2024-03-29T04:22:12;57266.89;;;-140.43;97.65
30714;BME280;17465;47.934;33.430;2024-03-29T04:24:43;57289.13;;;-140.43;99.06
30714;BME280;17465;47.934;33.430;2024-03-29T04:27:13;57271.13;;;-140.43;98.68
30714;BME280;17465;47.934;33.430;2024-03-29T04:29:43;57294.42;;;-140.43;98.78
30714;BME280;17465;47.934;33.430;2024-03-29T04:32:13;57278.54;;;-140.43;98.17
30714;BME280;17465;47.934;33.430;2024-03-29T04:34:48;57290.18;;;-140.43;99.08
30714;BME280;17465;47.934;33.430;2024-03-29T04:37:21;57245.71;;;-140.43;99.01
30714;BME280;17465;47.934;33.430;2024-03-29T04:39:51;57287.01;;;-140.43;98.31
30714;BME280;17465;47.934;33.430;2024-03-29T04:42:21;57278.54;;;-140.43;99.15
30714;BME280;17465;47.934;33.430;2024-03-29T04:44:51;57271.13;;;-140.43;98.57
30714;BME280;17465;47.934;33.430;2024-03-29T04:47:22;57251.00;;;-140.43;97.13
30714;BME280;17465;47.934;33.430;2024-03-29T04:49:52;57274.30;;;-140.43;97.00
30714;BME280;17465;47.934;33.430;2024-03-29T04:52:22;57274.30;;;-140.43;96.57
30714;BME280;17465;47.934;33.430;2024-03-29T04:54:52;57287.01;;;-140.43;97.18
30714;BME280;17465;47.934;33.430;2024-03-29T04:57:22;57263.71;;;-140.43;95.05
30714;BME280;17465;47.934;33.430;2024-03-29T04:59:52;57277.48;;;-140.43;95.78
30714;BME280;17465;47.934;33.430;2024-03-29T05:02:22;57282.77;;;-140.43;95.93
30714;BME280;17465;47.934;33.430;2024-03-29T05:04:53;57261.59;;;-140.43;95.49
30714;BME280;17465;47.934;33.430;2024-03-29T05:07:23;57313.48;;;-140.43;93.67
30714;BME280;17465;47.934;33.430;2024-03-29T05:09:54;57274.30;;;-140.43;93.50
30714;BME280;17465;47.934;33.430;2024-03-29T05:12:24;57300.78;;;-140.43;94.13
30714;BME280;17465;47.934;33.430;2024-03-29T05:14:54;57293.36;;;-140.43;92.48
30714;BME280;17465;47.934;33.430;2024-03-29T05:17:24;57293.36;;;-140.43;92.48
30714;BME280;17465;47.934;33.430;2024-03-29T05:19:55;57279.59;;;-140.43;92.77
30714;BME280;17465;47.934;33.430;2024-03-29T05:22:25;57296.54;;;-140.43;93.21
30714;BME280;17465;47.934;33.430;2024-03-29T05:24:55;57290.18;;;-140.43;92.92
30714;BME280;17465;47.934;33.430;2024-03-29T05:27:25;57299.72;;;-140.43;91.00
30714;BME280;17465;47.934;33.430;2024-03-29T05:29:55;57321.96;;;-140.43;90.10
30714;BME280;17465;47.934;33.430;2024-03-29T05:32:26;57328.31;;;-140.43;89.42
30714;BME280;17465;47.934;33.430;2024-03-29T05:34:56;57328.31;;;-140.43;89.42
30714;BME280;17465;47.934;33.430;2024-03-29T05:37:26;57347.38;;;-140.43;87.79
30714;BME280;17465;47.934;33.430;2024-03-29T05:39:56;57336.79;;;-140.43;88.39
30714;BME280;17465;47.934;33.430;2024-03-29T05:42:27;57307.13;;;-140.43;87.44
30714;BME280;17465;47.934;33.430;2024-03-29T05:44:57;57335.73;;;-140.43;88.75
30714;BME280;17465;47.934;33.430;2024-03-29T05:47:28;57348.43;;;-140.43;86.12
30714;BME280;17465;47.934;33.430;2024-03-29T05:49:58;57347.38;;;-140.43;84.85
30714;BME280;17465;47.934;33.430;2024-03-29T05:52:28;57351.61;;;-140.43;85.23
30714;BME280;17465;47.934;33.430;2024-03-29T05:54:58;57350.55;;;-140.43;84.83
30714;BME280;17465;47.934;33.430;2024-03-29T05:57:31;57350.55;;;-140.43;84.83
30714;BME280;17465;47.934;33.430;2024-03-29T06:00:01;57345.26;;;-140.43;86.04
30714;BME280;17465;47.934;33.430;2024-03-29T06:02:31;57345.26;;;-140.43;86.04
30714;BME280;17465;47.934;33.430;2024-03-29T06:05:02;57352.67;;;-140.43;85.16
30714;BME280;17465;47.934;33.430;2024-03-29T06:07:32;57353.73;;;-140.43;85.01
30714;BME280;17465;47.934;33.430;2024-03-29T06:10:03;57354.79;;;-140.43;86.38
30714;BME280;17465;47.934;33.430;2024-03-29T06:12:33;57354.79;;;-140.43;86.38
30714;BME280;17465;47.934;33.430;2024-03-29T06:15:09;57323.02;;;-140.43;84.83
30714;BME280;17465;47.934;33.430;2024-03-29T06:17:35;57331.49;;;-140.43;84.83
30714;BME280;17465;47.934;33.430;2024-03-29T06:20:10;57319.84;;;-140.43;85.60
30714;BME280;17465;47.934;33.430;2024-03-29T06:22:41;57360.08;;;-140.43;84.49
30714;BME280;17465;47.934;33.430;2024-03-29T06:25:11;57333.61;;;-140.43;85.84
30714;BME280;17465;47.934;33.430;2024-03-29T06:27:42;57333.61;;;-140.43;85.84
30714;BME280;17465;47.934;33.430;2024-03-29T06:30:12;57362.20;;;-140.43;83.87
30714;BME280;17465;47.934;33.430;2024-03-29T06:32:43;57381.27;;;-140.43;82.90
30714;BME280;17465;47.934;33.430;2024-03-29T06:35:13;57392.91;;;-140.43;82.09
30714;BME280;17465;47.934;33.430;2024-03-29T06:37:44;57392.91;;;-140.43;82.09
30714;BME280;17465;47.934;33.430;2024-03-29T06:40:14;57349.49;;;-140.43;81.75
30714;BME280;17465;47.934;33.430;2024-03-29T06:42:45;57387.62;;;-140.43;80.36
30714;BME280;17465;47.934;33.430;2024-03-29T06:45:15;57389.74;;;-140.43;80.89
30714;BME280;17465;47.934;33.430;2024-03-29T06:47:45;57387.62;;;-140.43;80.15
30714;BME280;17465;47.934;33.430;2024-03-29T06:50:18;57381.27;;;-140.43;80.94
30714;BME280;17465;47.934;33.430;2024-03-29T06:52:48;57375.97;;;-140.43;79.16
30714;BME280;17465;47.934;33.430;2024-03-29T06:55:19;57410.92;;;-140.43;76.84
30714;BME280;17465;47.934;33.430;2024-03-29T06:57:49;57465.99;;;-140.43;76.03
30714;BME280;17465;47.934;33.430;2024-03-29T07:00:19;57465.99;;;-140.43;76.03
30714;BME280;17465;47.934;33.430;2024-03-29T07:02:50;57422.57;;;-140.43;75.70
30714;BME280;17465;47.934;33.430;2024-03-29T07:05:26;57422.57;;;-140.43;75.70
30714;BME280;17465;47.934;33.430;2024-03-29T07:07:56;57441.63;;;-140.43;73.77
30714;BME280;17465;47.934;33.430;2024-03-29T07:10:29;57497.77;;;-140.43;72.24
30714;BME280;17465;47.934;33.430;2024-03-29T07:13:02;57493.53;;;-140.43;71.89
30714;BME280;17465;47.934;33.430;2024-03-29T07:15:32;57476.58;;;-140.43;72.53
30714;BME280;17465;47.934;33.430;2024-03-29T07:18:04;57465.99;;;-140.43;72.27
30714;BME280;17465;47.934;33.430;2024-03-29T07:20:34;57505.18;;;-140.43;71.57
30714;BME280;17465;47.934;33.430;2024-03-29T07:23:04;57500.94;;;-140.43;71.00
30714;BME280;17465;47.934;33.430;2024-03-29T07:25:34;57522.12;;;-140.43;70.56
30714;BME280;17465;47.934;33.430;2024-03-29T07:28:05;57531.66;;;-140.43;70.17
30714;BME280;17465;47.934;33.430;2024-03-29T07:30:36;57545.43;;;-140.43;69.87
30714;BME280;17465;47.934;33.430;2024-03-29T07:33:08;57601.56;;;-140.43;68.74
30714;BME280;17465;47.934;33.430;2024-03-29T07:35:41;57599.44;;;-140.43;68.03
30714;BME280;17465;47.934;33.430;2024-03-29T07:38:11;57599.44;;;-140.43;68.03
30714;BME280;17465;47.934;33.430;2024-03-29T07:40:42;57677.82;;;-140.43;67.39
30714;BME280;17465;47.934;33.430;2024-03-29T07:43:12;57686.29;;;-140.43;66.71
30714;BME280;17465;47.934;33.430;2024-03-29T07:45:43;57649.22;;;-140.43;66.22
30714;BME280;17465;47.934;33.430;2024-03-29T07:48:18;57649.22;;;-140.43;66.22
30714;BME280;17465;47.934;33.430;2024-03-29T07:50:48;57689.47;;;-140.43;65.45
30714;BME280;17465;47.934;33.430;2024-03-29T07:53:18;57662.99;;;-140.43;65.69
30714;BME280;17465;47.934;33.430;2024-03-29T07:55:50;57662.99;;;-140.43;65.69
30714;BME280;17465;47.934;33.430;2024-03-29T07:58:21;57695.82;;;-140.43;65.60
30714;BME280;17465;47.934;33.430;2024-03-29T08:00:52;57699.00;;;-140.43;64.87
30714;BME280;17465;47.934;33.430;2024-03-29T08:03:26;57740.31;;;-140.43;63.72
30714;BME280;17465;47.934;33.430;2024-03-29T08:06:03;57637.57;;;-140.43;64.68
30714;BME280;17465;47.934;33.430;2024-03-29T08:08:34;57723.36;;;-140.43;63.60
30714;BME280;17465;47.934;33.430;2024-03-29T08:11:06;57686.29;;;-140.43;64.33
30714;BME280;17465;47.934;33.430;2024-03-29T08:13:36;57686.29;;;-140.43;64.33
30714;BME280;17465;47.934;33.430;2024-03-29T08:16:07;57647.10;;;-140.43;64.56
30714;BME280;17465;47.934;33.430;2024-03-29T08:18:37;57647.10;;;-140.43;64.56
30714;BME280;17465;47.934;33.430;2024-03-29T08:21:22;57636.51;;;-140.43;64.42
30714;BME280;17465;47.934;33.430;2024-03-29T08:23:58;57717.01;;;-140.43;63.57
30714;BME280;17465;47.934;33.430;2024-03-29T08:26:28;57717.01;;;-140.43;63.57
30714;BME280;17465;47.934;33.430;2024-03-29T08:28:58;57756.20;;;-140.43;62.48
30714;BME280;17465;47.934;33.430;2024-03-29T08:31:28;57756.20;;;-140.43;61.36
30714;BME280;17465;47.934;33.430;2024-03-29T08:33:59;57774.20;;;-140.43;61.52
30714;BME280;17465;47.934;33.430;2024-03-29T08:36:31;57801.74;;;-140.43;60.82
30714;BME280;17465;47.934;33.430;2024-03-29T08:39:01;57801.74;;;-140.43;60.82
30714;BME280;17465;47.934;33.430;2024-03-29T08:41:32;57818.69;;;-140.43;60.48
30714;BME280;17465;47.934;33.430;2024-03-29T08:44:06;57783.74;;;-140.43;60.74
30714;BME280;17465;47.934;33.430;2024-03-29T08:46:40;57764.67;;;-140.43;60.62
30714;BME280;17465;47.934;33.430;2024-03-29T08:49:14;57832.46;;;-140.43;60.24
30714;BME280;17465;47.934;33.430;2024-03-29T08:51:47;57780.56;;;-140.43;61.53
30714;BME280;17465;47.934;33.430;2024-03-29T08:54:18;57814.45;;;-140.43;61.07
30714;BME280;17465;47.934;33.430;2024-03-29T08:56:48;57814.45;;;-140.43;61.07
30714;BME280;17465;47.934;33.430;2024-03-29T08:59:18;57830.34;;;-140.43;60.76
30714;BME280;17465;47.934;33.430;2024-03-29T09:01:48;57807.04;;;-140.43;60.65
30714;BME280;17465;47.934;33.430;2024-03-29T09:04:20;57837.76;;;-140.43;60.89
30714;BME280;17465;47.934;33.430;2024-03-29T09:06:50;57897.07;;;-140.43;60.55
30714;BME280;17465;47.934;33.430;2024-03-29T09:09:23;57889.66;;;-140.43;59.80
30714;BME280;17465;47.934;33.430;2024-03-29T09:11:56;57889.66;;;-140.43;59.80
30714;BME280;17465;47.934;33.430;2024-03-29T09:14:28;57855.77;;;-140.43;61.57
30714;BME280;17465;47.934;33.430;2024-03-29T09:16:58;57760.44;;;-140.43;61.92
30714;BME280;17465;47.934;33.430;2024-03-29T09:19:29;57760.44;;;-140.43;61.92
30714;BME280;17465;47.934;33.430;2024-03-29T09:21:59;57753.02;;;-140.43;61.67
30714;BME280;17465;47.934;33.430;2024-03-29T09:24:29;57773.14;;;-140.43;62.45
30714;BME280;17465;47.934;33.430;2024-03-29T09:27:00;57737.13;;;-140.43;63.37
30714;BME280;17465;47.934;33.430;2024-03-29T09:29:30;57737.13;;;-140.43;63.37
30714;BME280;17465;47.934;33.430;2024-03-29T09:32:02;57876.95;;;-140.43;62.18
30714;BME280;17465;47.934;33.430;2024-03-29T09:34:35;57904.49;;;-140.43;61.53
30714;BME280;17465;47.934;33.430;2024-03-29T09:37:05;57889.66;;;-140.43;62.25
30714;BME280;17465;47.934;33.430;2024-03-29T09:39:35;57889.66;;;-140.43;62.25
30714;BME280;17465;47.934;33.430;2024-03-29T09:47:49;57719.12;;;-140.43;63.58
30714;BME280;17465;47.934;33.430;2024-03-29T09:50:22;57721.25;;;-140.43;63.81
30714;BME280;17465;47.934;33.430;2024-03-29T09:52:52;57721.25;;;-140.43;63.81
30714;BME280;17465;47.934;33.430;2024-03-29T09:55:23;57710.65;;;-140.43;64.16
30714;BME280;17465;47.934;33.430;2024-03-29T09:57:53;57688.41;;;-140.43;64.32
30714;BME280;17465;47.934;33.430;2024-03-29T10:00:25;57738.19;;;-140.43;64.42
30714;BME280;17465;47.934;33.430;2024-03-29T10:02:57;57679.94;;;-140.43;64.87
30714;BME280;17465;47.934;33.430;2024-03-29T10:05:27;57691.59;;;-140.43;64.88
30714;BME280;17465;47.934;33.430;2024-03-29T10:07:58;57643.93;;;-140.43;64.78
30714;BME280;17465;47.934;33.430;2024-03-29T10:10:28;57643.93;;;-140.43;64.78
30714;BME280;17465;47.934;33.430;2024-03-29T10:12:59;57626.98;;;-140.43;65.18
30714;BME280;17465;47.934;33.430;2024-03-29T10:15:31;57626.98;;;-140.43;65.18
30714;BME280;17465;47.934;33.430;2024-03-29T10:18:01;57634.39;;;-140.43;65.28
30714;BME280;17465;47.934;33.430;2024-03-29T10:20:31;57647.10;;;-140.43;65.11
30714;BME280;17465;47.934;33.430;2024-03-29T10:23:02;57611.09;;;-140.43;64.36
30714;BME280;17465;47.934;33.430;2024-03-29T10:28:23;57633.34;;;-140.43;64.74
30714;BME280;17465;47.934;33.430;2024-03-29T10:30:56;57664.05;;;-140.43;64.84
30714;BME280;17465;47.934;33.430;2024-03-29T10:33:33;57664.05;;;-140.43;64.84
30714;BME280;17465;47.934;33.430;2024-03-29T10:36:04;57662.99;;;-140.43;64.73
30714;BME280;17465;47.934;33.430;2024-03-29T10:38:37;57643.93;;;-140.43;64.74
30714;BME280;17465;47.934;33.430;2024-03-29T10:41:08;57632.27;;;-140.43;65.33
30714;BME280;17465;47.934;33.430;2024-03-29T10:43:42;57623.80;;;-140.43;65.23
30714;BME280;17465;47.934;33.430;2024-03-29T10:46:13;57623.80;;;-140.43;65.23
30714;BME280;17465;47.934;33.430;2024-03-29T10:48:44;57644.98;;;-140.43;65.16
30714;BME280;17465;47.934;33.430;2024-03-29T10:51:16;57637.57;;;-140.43;64.93
30714;BME280;17465;47.934;33.430;2024-03-29T10:53:47;57688.41;;;-140.43;64.76
30714;BME280;17465;47.934;33.430;2024-03-29T10:56:21;57675.70;;;-140.43;64.61
30714;BME280;17465;47.934;33.430;2024-03-29T10:58:55;57631.22;;;-140.43;64.51
30714;BME280;17465;47.934;33.430;2024-03-29T11:01:29;57625.92;;;-140.43;64.91
30714;BME280;17465;47.934;33.430;2024-03-29T11:04:15;57625.92;;;-140.43;64.91
30714;BME280;17465;47.934;33.430;2024-03-29T11:06:49;57610.03;;;-140.43;64.88
30714;BME280;17465;47.934;33.430;2024-03-29T11:09:21;57634.39;;;-140.43;65.24
30714;BME280;17465;47.934;33.430;2024-03-29T11:11:54;57634.39;;;-140.43;65.24
30714;BME280;17465;47.934;33.430;2024-03-29T11:14:37;57641.81;;;-140.43;65.53
30714;BME280;17465;47.934;33.430;2024-03-29T11:17:01;57639.69;;;-140.43;65.98
30714;BME280;17465;47.934;33.430;2024-03-29T11:19:33;57639.69;;;-140.43;65.98
30714;BME280;17465;47.934;33.430;2024-03-29T11:22:09;57608.98;;;-140.43;65.79
30714;BME280;17465;47.934;33.430;2024-03-29T11:24:35;57632.27;;;-140.43;65.57
30714;BME280;17465;47.934;33.430;2024-03-29T11:27:10;57632.27;;;-140.43;65.57
30714;BME280;17465;47.934;33.430;2024-03-29T11:29:43;57598.38;;;-140.43;66.08
30714;BME280;17465;47.934;33.430;2024-03-29T11:32:15;57572.96;;;-140.43;66.86
30714;BME280;17465;47.934;33.430;2024-03-29T11:34:45;57630.16;;;-140.43;67.37
30714;BME280;17465;47.934;33.430;2024-03-29T11:37:15;57594.14;;;-140.43;67.37
30714;BME280;17465;47.934;33.430;2024-03-29T11:39:48;57625.92;;;-140.43;66.78
30714;BME280;17465;47.934;33.430;2024-03-29T11:42:18;57632.27;;;-140.43;66.68
30714;BME280;17465;47.934;33.430;2024-03-29T11:44:49;57629.10;;;-140.43;67.48
30714;BME280;17465;47.934;33.430;2024-03-29T11:47:20;57630.16;;;-140.43;67.21
30714;BME280;17465;47.934;33.430;2024-03-29T11:49:59;57630.16;;;-140.43;67.21
30714;BME280;17465;47.934;33.430;2024-03-29T11:52:30;57593.09;;;-140.43;67.85
30714;BME280;17465;47.934;33.430;2024-03-29T11:55:12;57593.09;;;-140.43;67.85
30714;BME280;17465;47.934;33.430;2024-03-29T11:57:38;57597.32;;;-140.43;67.76
30714;BME280;17465;47.934;33.430;2024-03-29T12:00:14;57603.68;;;-140.43;67.34
30714;BME280;17465;47.934;33.430;2024-03-29T12:02:41;57592.03;;;-140.43;67.47
30714;BME280;17465;47.934;33.430;2024-03-29T12:05:16;57598.38;;;-140.43;67.76
30714;BME280;17465;47.934;33.430;2024-03-29T12:07:47;57610.03;;;-140.43;67.50
30714;BME280;17465;47.934;33.430;2024-03-29T12:10:18;57610.03;;;-140.43;67.50
30714;BME280;17465;47.934;33.430;2024-03-29T12:12:48;57600.50;;;-140.43;67.59
30714;BME280;17465;47.934;33.430;2024-03-29T12:15:34;57588.85;;;-140.43;67.84
30714;BME280;17465;47.934;33.430;2024-03-29T12:18:10;57588.85;;;-140.43;67.95
30714;BME280;17465;47.934;33.430;2024-03-29T12:20:40;57588.85;;;-140.43;67.95
30714;BME280;17465;47.934;33.430;2024-03-29T12:23:11;57579.32;;;-140.43;68.06
30714;BME280;17465;47.934;33.430;2024-03-29T12:25:41;57606.86;;;-140.43;67.62
30714;BME280;17465;47.934;33.430;2024-03-29T12:28:13;57616.39;;;-140.43;67.56
30714;BME280;17465;47.934;33.430;2024-03-29T12:30:45;57616.39;;;-140.43;67.56
30714;BME280;17465;47.934;33.430;2024-03-29T12:33:19;57577.20;;;-140.43;67.96
30714;BME280;17465;47.934;33.430;2024-03-29T12:35:51;57599.44;;;-140.43;68.19
30714;BME280;17465;47.934;33.430;2024-03-29T12:38:22;57599.44;;;-140.43;68.19
30714;BME280;17465;47.934;33.430;2024-03-29T12:40:53;57549.66;;;-140.43;68.87
30714;BME280;17465;47.934;33.430;2024-03-29T12:43:32;57552.84;;;-140.43;68.54
30714;BME280;17465;47.934;33.430;2024-03-29T12:45:58;57568.73;;;-140.43;68.89
30714;BME280;17465;47.934;33.430;2024-03-29T12:48:29;57568.73;;;-140.43;68.89
30714;BME280;17465;47.934;33.430;2024-03-29T12:51:01;57551.78;;;-140.43;69.01
30714;BME280;17465;47.934;33.430;2024-03-29T12:53:31;57495.65;;;-140.43;70.49
30714;BME280;17465;47.934;33.430;2024-03-29T12:56:01;57478.70;;;-140.43;71.17
30714;BME280;17465;47.934;33.430;2024-03-29T12:58:32;57434.22;;;-140.43;73.25